createdAt,value
2018-09-30T00:02:27.993Z,11.00
2018-09-30T00:05:00.229Z,11.00
2018-09-30T00:07:31.860Z,11.00
2018-09-30T00:10:03.259Z,11.00
2018-09-30T00:12:34.677Z,10.90
2018-09-30T00:15:06.037Z,10.90
2018-09-30T00:17:37.376Z,10.90
2018-09-30T00:20:08.743Z,10.80
2018-09-30T00:22:39.849Z,10.70
2018-09-30T00:25:16.212Z,10.70
2018-09-30T00:27:47.727Z,10.70
2018-09-30T00:30:19.263Z,10.80
2018-09-30T00:32:50.655Z,10.70
2018-09-30T00:35:21.978Z,10.60
2018-09-30T00:37:53.408Z,10.60
2018-09-30T00:40:24.483Z,10.60
2018-09-30T00:42:55.809Z,10.60
2018-09-30T00:45:27.032Z,10.60
2018-09-30T00:47:58.575Z,10.50
2018-09-30T00:50:30.040Z,10.50
2018-09-30T00:53:01.433Z,10.50
2018-09-30T00:55:33.013Z,10.50
2018-09-30T00:58:04.580Z,10.40
2018-09-30T01:00:35.668Z,10.40
2018-09-30T01:03:06.922Z,10.30
2018-09-30T01:05:38.127Z,10.30
2018-09-30T01:08:09.291Z,10.40
2018-09-30T01:10:40.834Z,10.50
2018-09-30T01:13:12.039Z,10.50
2018-09-30T01:15:43.523Z,10.50
2018-09-30T01:18:14.713Z,10.50
2018-09-30T01:20:45.777Z,10.50
2018-09-30T01:23:17.389Z,10.40
2018-09-30T01:25:48.789Z,10.40
2018-09-30T01:28:20.123Z,10.30
2018-09-30T01:30:51.524Z,10.10
2018-09-30T01:33:23.043Z,10.10
2018-09-30T01:35:54.341Z,10.20
2018-09-30T01:38:25.695Z,10.20
2018-09-30T01:40:56.876Z,10.20
2018-09-30T01:43:28.343Z,10.30
2018-09-30T01:46:00.203Z,10.10
2018-09-30T01:48:31.493Z,10.00
2018-09-30T01:51:02.486Z,10.00
2018-09-30T01:53:33.853Z,10.00
2018-09-30T01:56:05.115Z,9.80
2018-09-30T01:58:36.407Z,9.80
2018-09-30T02:01:07.591Z,9.80
2018-09-30T02:03:38.674Z,9.80
2018-09-30T02:06:09.979Z,9.80
2018-09-30T02:08:41.359Z,9.90
2018-09-30T02:11:12.610Z,9.90
2018-09-30T02:13:44.038Z,9.80
2018-09-30T02:16:15.477Z,9.70
2018-09-30T02:18:46.818Z,9.80
2018-09-30T02:21:18.450Z,9.80
2018-09-30T02:23:50.048Z,9.80
2018-09-30T02:26:21.279Z,9.80
2018-09-30T02:28:52.732Z,9.80
2018-09-30T02:31:24.271Z,9.60
2018-09-30T02:33:56.002Z,9.50
2018-09-30T02:36:27.404Z,9.60
2018-09-30T02:38:58.421Z,9.60
2018-09-30T02:41:29.805Z,9.50
2018-09-30T02:44:01.121Z,9.40
2018-09-30T02:46:32.468Z,9.50
2018-09-30T02:49:03.816Z,9.50
2018-09-30T02:51:35.217Z,9.30
2018-09-30T02:54:06.666Z,9.20
2018-09-30T02:56:38.039Z,9.20
2018-09-30T02:59:09.523Z,9.10
2018-09-30T03:01:40.760Z,9.10
2018-09-30T03:04:12.340Z,9.00
2018-09-30T03:06:49.139Z,9.00
2018-09-30T03:09:20.592Z,8.90
2018-09-30T03:11:52.062Z,8.70
2018-09-30T03:14:23.541Z,8.80
2018-09-30T03:16:54.782Z,8.80
2018-09-30T03:19:26.062Z,8.80
2018-09-30T03:21:57.267Z,8.90
2018-09-30T03:24:28.737Z,8.90
2018-09-30T03:26:59.831Z,8.80
2018-09-30T03:29:31.137Z,8.70
2018-09-30T03:32:02.263Z,8.70
2018-09-30T03:34:33.946Z,8.70
2018-09-30T03:37:05.163Z,8.70
2018-09-30T03:39:36.639Z,8.50
2018-09-30T03:42:08.132Z,8.50
2018-09-30T03:44:39.603Z,8.50
2018-09-30T03:47:10.811Z,8.40
2018-09-30T03:49:41.804Z,8.50
2018-09-30T03:52:13.364Z,8.50
2018-09-30T03:54:44.729Z,8.50
2018-09-30T03:57:16.544Z,8.50
2018-09-30T03:59:48.008Z,8.50
2018-09-30T04:02:19.259Z,8.30
2018-09-30T04:04:50.620Z,8.30
2018-09-30T04:07:22.257Z,8.40
2018-09-30T04:09:53.574Z,8.20
2018-09-30T04:12:24.863Z,8.10
2018-09-30T04:14:56.439Z,8.20
2018-09-30T04:17:27.745Z,8.30
2018-09-30T04:19:58.788Z,8.10
2018-09-30T04:22:29.927Z,8.00
2018-09-30T04:25:01.165Z,8.00
2018-09-30T04:27:32.547Z,7.90
2018-09-30T04:30:04.013Z,8.10
2018-09-30T04:32:35.115Z,8.20
2018-09-30T04:35:06.561Z,8.00
2018-09-30T04:37:37.933Z,7.80
2018-09-30T04:40:09.588Z,7.90
2018-09-30T04:42:41.053Z,8.00
2018-09-30T04:45:12.468Z,7.90
2018-09-30T04:47:43.760Z,7.90
2018-09-30T04:50:15.148Z,7.80
2018-09-30T04:52:46.400Z,7.70
2018-09-30T04:55:18.055Z,7.60
2018-09-30T04:57:49.346Z,7.70
2018-09-30T05:00:20.686Z,8.00
2018-09-30T05:02:52.228Z,8.10
2018-09-30T05:05:23.476Z,8.20
2018-09-30T05:07:54.600Z,8.20
2018-09-30T05:10:25.876Z,8.20
2018-09-30T05:12:57.108Z,8.40
2018-09-30T05:15:28.831Z,8.60
2018-09-30T05:18:00.285Z,9.00
2018-09-30T05:20:31.511Z,9.40
2018-09-30T05:23:02.774Z,9.60
2018-09-30T05:25:34.124Z,9.90
2018-09-30T05:28:05.878Z,10.30
2018-09-30T05:30:37.516Z,10.70
2018-09-30T05:33:08.829Z,10.80
2018-09-30T05:35:40.026Z,10.90
2018-09-30T05:38:11.449Z,11.10
2018-09-30T05:40:42.875Z,11.30
2018-09-30T05:43:14.358Z,11.70
2018-09-30T05:45:45.866Z,12.00
2018-09-30T05:48:17.437Z,12.40
2018-09-30T05:50:48.924Z,12.70
2018-09-30T05:53:20.277Z,12.80
2018-09-30T05:55:52.268Z,13.30
2018-09-30T05:58:24.045Z,13.80
2018-09-30T06:00:55.407Z,14.00
2018-09-30T06:03:27.012Z,14.20
2018-09-30T06:05:58.632Z,14.30
2018-09-30T06:08:30.083Z,14.60
2018-09-30T06:11:01.315Z,15.10
2018-09-30T06:13:33.052Z,15.30
2018-09-30T06:16:04.315Z,15.30
2018-09-30T06:18:36.676Z,15.70
2018-09-30T06:21:08.131Z,15.80
2018-09-30T06:23:39.319Z,15.30
2018-09-30T06:26:10.572Z,15.00
2018-09-30T06:28:42.722Z,15.00
2018-09-30T06:31:13.823Z,15.50
2018-09-30T06:33:45.542Z,15.60
2018-09-30T06:36:17.032Z,15.20
2018-09-30T06:38:48.309Z,15.30
2018-09-30T06:41:19.563Z,15.20
2018-09-30T06:43:50.780Z,15.00
2018-09-30T06:46:22.295Z,14.50
2018-09-30T06:48:53.907Z,14.60
2018-09-30T06:51:25.340Z,15.10
2018-09-30T06:53:56.780Z,15.40
2018-09-30T06:56:28.326Z,15.70
2018-09-30T06:59:00.328Z,15.70
2018-09-30T07:01:32.227Z,15.60
2018-09-30T07:04:03.434Z,15.80
2018-09-30T07:06:34.724Z,15.50
2018-09-30T07:09:07.525Z,15.70
2018-09-30T07:11:38.911Z,15.90
2018-09-30T07:14:10.374Z,16.60
2018-09-30T07:16:41.757Z,16.60
2018-09-30T07:19:13.035Z,16.80
2018-09-30T07:21:44.619Z,16.80
2018-09-30T07:24:16.110Z,16.80
2018-09-30T07:26:47.783Z,17.90
2018-09-30T07:29:19.165Z,18.20
2018-09-30T07:31:50.490Z,17.90
2018-09-30T07:34:22.043Z,17.80
2018-09-30T07:36:53.552Z,18.30
2018-09-30T07:39:25.220Z,19.40
2018-09-30T07:41:56.493Z,19.60
2018-09-30T07:44:28.290Z,19.40
2018-09-30T07:46:59.874Z,19.20
2018-09-30T07:49:31.469Z,18.80
2018-09-30T07:52:02.885Z,18.60
2018-09-30T07:54:34.089Z,19.00
2018-09-30T07:57:05.456Z,19.60
2018-09-30T07:59:37.030Z,20.20
2018-09-30T08:02:08.261Z,19.70
2018-09-30T08:04:43.652Z,19.70
2018-09-30T08:07:14.953Z,20.40
2018-09-30T08:09:46.415Z,20.60
2018-09-30T08:12:17.805Z,21.30
2018-09-30T08:14:49.482Z,21.30
2018-09-30T08:17:20.977Z,20.70
2018-09-30T08:19:52.881Z,21.20
2018-09-30T08:22:24.258Z,21.00
2018-09-30T08:24:55.875Z,21.00
2018-09-30T08:27:27.517Z,21.70
2018-09-30T08:29:59.183Z,21.40
2018-09-30T08:32:30.641Z,21.10
2018-09-30T08:35:02.132Z,20.10
2018-09-30T08:37:38.911Z,19.90
2018-09-30T08:40:10.497Z,20.10
2018-09-30T08:42:41.709Z,20.40
2018-09-30T08:45:13.238Z,20.30
2018-09-30T08:47:44.486Z,20.30
2018-09-30T08:50:15.898Z,20.10
2018-09-30T08:52:47.560Z,20.20
2018-09-30T08:55:19.061Z,19.50
2018-09-30T08:57:50.445Z,19.70
2018-09-30T09:00:21.594Z,20.00
2018-09-30T09:02:53.207Z,20.30
2018-09-30T09:05:24.708Z,20.20
2018-09-30T09:07:56.092Z,19.80
2018-09-30T09:10:27.341Z,19.70
2018-09-30T09:12:59.049Z,19.10
2018-09-30T09:15:30.597Z,19.00
2018-09-30T09:18:02.275Z,19.20
2018-09-30T09:20:33.730Z,19.50
2018-09-30T09:23:05.272Z,19.90
2018-09-30T09:25:36.916Z,19.80
2018-09-30T09:28:08.600Z,20.00
2018-09-30T09:30:39.862Z,20.10
2018-09-30T09:33:11.263Z,20.20
2018-09-30T09:35:42.665Z,19.80
2018-09-30T09:38:14.281Z,19.40
2018-09-30T09:40:45.669Z,19.40
2018-09-30T09:43:16.834Z,19.70
2018-09-30T09:45:48.084Z,20.40
2018-09-30T09:48:19.403Z,21.20
2018-09-30T09:50:50.862Z,21.40
2018-09-30T09:53:22.157Z,21.00
2018-09-30T09:55:53.614Z,20.50
2018-09-30T09:58:25.297Z,20.80
2018-09-30T10:00:56.824Z,21.20
2018-09-30T10:03:28.418Z,20.80
2018-09-30T10:05:59.852Z,20.50
2018-09-30T10:08:31.024Z,21.00
2018-09-30T10:11:02.519Z,20.70
2018-09-30T10:13:34.040Z,20.60
2018-09-30T10:16:05.479Z,20.70
2018-09-30T10:18:37.093Z,21.10
2018-09-30T10:21:09.013Z,21.30
2018-09-30T10:23:40.529Z,21.50
2018-09-30T10:26:12.158Z,21.00
2018-09-30T10:28:43.502Z,20.40
2018-09-30T10:31:14.673Z,20.30
2018-09-30T10:33:46.266Z,20.20
2018-09-30T10:36:17.798Z,20.00
2018-09-30T10:38:49.609Z,19.70
2018-09-30T10:41:21.023Z,19.90
2018-09-30T10:43:52.337Z,19.70
2018-09-30T10:46:23.759Z,19.70
2018-09-30T10:48:55.123Z,20.00
2018-09-30T10:51:26.563Z,20.30
2018-09-30T10:53:58.180Z,20.40
2018-09-30T10:56:29.530Z,20.60
2018-09-30T10:59:00.877Z,20.70
2018-09-30T11:01:32.350Z,20.60
2018-09-30T11:04:03.731Z,20.40
2018-09-30T11:06:35.293Z,20.60
2018-09-30T11:09:07.741Z,20.70
2018-09-30T11:11:39.144Z,20.30
2018-09-30T11:14:10.468Z,20.70
2018-09-30T11:16:41.989Z,19.90
2018-09-30T11:19:13.250Z,19.40
2018-09-30T11:21:44.732Z,19.50
2018-09-30T11:24:15.988Z,20.00
2018-09-30T11:26:47.523Z,19.80
2018-09-30T11:29:18.921Z,19.40
2018-09-30T11:31:50.179Z,19.10
2018-09-30T11:34:21.326Z,19.40
2018-09-30T11:36:53.086Z,19.40
2018-09-30T11:39:24.249Z,19.10
2018-09-30T11:41:55.736Z,18.90
2018-09-30T11:44:27.788Z,19.00
2018-09-30T11:46:59.217Z,19.40
2018-09-30T11:49:30.383Z,19.50
2018-09-30T11:52:01.994Z,18.90
2018-09-30T11:54:33.182Z,18.70
2018-09-30T11:57:05.452Z,19.00
2018-09-30T11:59:37.322Z,19.10
2018-09-30T12:02:09.055Z,18.90
2018-09-30T12:04:40.786Z,18.80
2018-09-30T12:07:12.089Z,18.60
2018-09-30T12:09:43.584Z,18.50
2018-09-30T12:12:14.962Z,18.30
2018-09-30T12:14:46.172Z,18.40
2018-09-30T12:17:17.385Z,18.60
2018-09-30T12:19:48.811Z,18.30
2018-09-30T12:22:20.304Z,17.90
2018-09-30T12:24:51.777Z,17.50
2018-09-30T12:27:22.966Z,17.20
2018-09-30T12:29:54.321Z,17.10
2018-09-30T12:32:25.879Z,17.10
2018-09-30T12:34:57.304Z,16.90
2018-09-30T12:37:28.934Z,16.80
2018-09-30T12:40:00.565Z,16.70
2018-09-30T12:42:31.829Z,16.70
2018-09-30T12:45:03.251Z,16.80
2018-09-30T12:47:34.583Z,16.90
2018-09-30T12:50:05.929Z,16.60
2018-09-30T12:52:37.219Z,16.50
2018-09-30T12:55:08.585Z,16.50
2018-09-30T12:57:39.964Z,16.50
2018-09-30T13:00:12.059Z,16.40
2018-09-30T13:02:43.234Z,16.40
2018-09-30T13:05:14.741Z,16.70
2018-09-30T13:07:46.623Z,16.80
2018-09-30T13:10:18.237Z,16.70
2018-09-30T13:12:49.536Z,16.60
2018-09-30T13:15:21.135Z,16.60
2018-09-30T13:17:52.656Z,16.60
2018-09-30T13:20:24.346Z,16.50
2018-09-30T13:22:56.146Z,16.60
2018-09-30T13:25:27.223Z,16.60
2018-09-30T13:27:58.940Z,16.50
2018-09-30T13:30:30.148Z,16.60
2018-09-30T13:33:01.801Z,16.70
2018-09-30T13:35:33.255Z,16.60
2018-09-30T13:38:04.497Z,16.50
2018-09-30T13:40:36.024Z,16.40
2018-09-30T13:43:07.333Z,16.40
2018-09-30T13:45:38.703Z,16.40
2018-09-30T13:48:10.444Z,16.30
2018-09-30T13:50:41.759Z,16.30
2018-09-30T13:53:13.442Z,16.30
2018-09-30T13:55:45.198Z,16.40
2018-09-30T13:58:16.623Z,16.30
2018-09-30T14:00:47.888Z,16.30
2018-09-30T14:03:19.461Z,16.30
2018-09-30T14:05:51.171Z,16.30
2018-09-30T14:08:22.600Z,16.40
2018-09-30T14:10:54.141Z,16.50
2018-09-30T14:13:25.714Z,16.50
2018-09-30T14:15:57.200Z,16.50
2018-09-30T14:18:28.429Z,16.40
2018-09-30T14:20:59.864Z,16.40
2018-09-30T14:23:31.236Z,16.40
2018-09-30T14:26:02.801Z,16.40
2018-09-30T14:28:33.967Z,16.40
2018-09-30T14:31:05.510Z,16.30
2018-09-30T14:33:36.808Z,16.30
2018-09-30T14:36:08.247Z,16.30
2018-09-30T14:38:39.722Z,16.50
2018-09-30T14:41:10.916Z,16.50
2018-09-30T14:43:42.606Z,16.50
2018-09-30T14:46:14.259Z,16.50
2018-09-30T14:48:45.840Z,16.50
2018-09-30T14:51:17.254Z,16.60
2018-09-30T14:53:49.238Z,16.60
2018-09-30T14:56:20.928Z,16.50
2018-09-30T14:58:52.217Z,16.40
2018-09-30T15:01:23.653Z,16.40
2018-09-30T15:03:55.010Z,16.30
2018-09-30T15:06:26.350Z,16.30
2018-09-30T15:08:57.866Z,16.30
2018-09-30T15:11:29.054Z,16.40
2018-09-30T15:14:00.686Z,16.40
2018-09-30T15:16:32.190Z,16.30
2018-09-30T15:19:03.874Z,16.30
2018-09-30T15:21:35.253Z,16.30
2018-09-30T15:24:06.530Z,16.30
2018-09-30T15:26:38.168Z,16.20
2018-09-30T15:29:09.658Z,16.10
2018-09-30T15:31:41.365Z,16.20
2018-09-30T15:34:13.252Z,16.20
2018-09-30T15:36:44.543Z,16.20
2018-09-30T15:39:15.957Z,16.20
2018-09-30T15:41:47.538Z,16.10
2018-09-30T15:44:18.880Z,16.10
2018-09-30T15:46:50.020Z,16.10
2018-09-30T15:49:21.617Z,16.10
2018-09-30T15:51:55.248Z,16.10
2018-09-30T15:54:26.773Z,16.10
2018-09-30T15:56:58.203Z,16.00
2018-09-30T15:59:29.639Z,15.90
2018-09-30T16:02:00.941Z,15.90
2018-09-30T16:04:32.126Z,15.80
2018-09-30T16:07:03.726Z,15.70
2018-09-30T16:09:35.177Z,15.80
2018-09-30T16:12:06.576Z,15.70
2018-09-30T16:14:38.004Z,15.60
2018-09-30T16:17:09.581Z,15.60
2018-09-30T16:19:40.860Z,15.60
2018-09-30T16:22:12.467Z,15.50
2018-09-30T16:24:43.880Z,15.50
2018-09-30T16:27:15.218Z,15.50
2018-09-30T16:29:46.625Z,15.40
2018-09-30T16:32:18.007Z,15.40
2018-09-30T16:34:49.366Z,15.40
2018-09-30T16:37:20.803Z,15.40
2018-09-30T16:39:52.152Z,15.30
2018-09-30T16:42:23.667Z,15.30
2018-09-30T16:44:55.009Z,15.30
2018-09-30T16:47:26.343Z,15.30
2018-09-30T16:49:57.789Z,15.20
2018-09-30T16:52:29.167Z,15.20
2018-09-30T16:55:00.645Z,15.20
2018-09-30T16:57:31.871Z,15.10
2018-09-30T17:00:03.462Z,15.10
2018-09-30T17:02:35.009Z,15.10
2018-09-30T17:05:06.383Z,15.00
2018-09-30T17:07:37.862Z,15.00
2018-09-30T17:10:09.534Z,15.10
2018-09-30T17:12:41.366Z,15.00
2018-09-30T17:15:12.991Z,15.00
2018-09-30T17:17:44.562Z,14.90
2018-09-30T17:20:16.168Z,14.90
2018-09-30T17:22:47.377Z,15.00
2018-09-30T17:25:18.642Z,15.00
2018-09-30T17:27:49.956Z,14.90
2018-09-30T17:30:21.615Z,14.70
2018-09-30T17:32:53.072Z,14.60
2018-09-30T17:35:24.495Z,14.60
2018-09-30T17:37:55.803Z,14.40
2018-09-30T17:40:27.213Z,14.30
2018-09-30T17:42:58.841Z,14.20
2018-09-30T17:45:30.170Z,14.00
2018-09-30T17:48:01.629Z,14.00
2018-09-30T17:50:33.108Z,13.90
2018-09-30T17:53:04.393Z,13.80
2018-09-30T17:55:36.003Z,13.60
2018-09-30T17:58:08.070Z,13.50
2018-09-30T18:00:39.645Z,13.40
2018-09-30T18:03:10.981Z,13.40
2018-09-30T18:05:42.318Z,13.30
2018-09-30T18:08:13.693Z,13.20
2018-09-30T18:10:45.256Z,13.10
2018-09-30T18:13:16.603Z,13.00
2018-09-30T18:15:48.041Z,13.00
2018-09-30T18:18:19.418Z,12.90
2018-09-30T18:20:51.145Z,12.80
2018-09-30T18:23:23.122Z,12.80
2018-09-30T18:25:54.725Z,12.80
2018-09-30T18:28:26.310Z,12.70
2018-09-30T18:30:57.898Z,12.60
2018-09-30T18:33:29.638Z,12.60
2018-09-30T18:36:01.432Z,12.70
2018-09-30T18:38:33.762Z,13.00
2018-09-30T18:41:05.907Z,13.10
2018-09-30T18:43:37.762Z,13.30
2018-09-30T18:46:11.023Z,13.00
2018-09-30T18:48:43.209Z,12.80
2018-09-30T18:51:15.044Z,12.70
2018-09-30T18:53:47.092Z,12.70
2018-09-30T18:56:18.922Z,12.50
2018-09-30T18:58:50.643Z,12.50
2018-09-30T19:01:22.283Z,12.50
2018-09-30T19:03:54.144Z,12.50
2018-09-30T19:06:26.439Z,12.40
2018-09-30T19:08:58.304Z,12.20
2018-09-30T19:11:30.123Z,12.10
2018-09-30T19:14:02.003Z,12.10
2018-09-30T19:16:34.260Z,11.90
2018-09-30T19:19:06.831Z,12.00
2018-09-30T19:21:38.877Z,11.90
2018-09-30T19:24:10.486Z,11.80
2018-09-30T19:26:42.032Z,11.70
2018-09-30T19:29:13.783Z,11.70
2018-09-30T19:31:45.336Z,11.50
2018-09-30T19:34:16.930Z,11.40
2018-09-30T19:36:48.257Z,11.50
2018-09-30T19:39:19.645Z,11.60
2018-09-30T19:41:51.076Z,11.70
2018-09-30T19:44:22.725Z,11.70
2018-09-30T19:46:54.626Z,11.70
2018-09-30T19:49:26.080Z,11.60
2018-09-30T19:51:58.167Z,11.50
2018-09-30T19:54:29.591Z,11.60
2018-09-30T19:57:01.033Z,11.50
2018-09-30T19:59:32.877Z,11.50
2018-09-30T20:02:04.489Z,11.50
2018-09-30T20:04:36.289Z,11.60
2018-09-30T20:07:08.208Z,11.60
2018-09-30T20:09:39.627Z,11.60
2018-09-30T20:12:11.117Z,11.50
2018-09-30T20:14:42.585Z,11.60
2018-09-30T20:17:14.342Z,11.60
2018-09-30T20:19:45.953Z,11.60
2018-09-30T20:22:17.400Z,11.60
2018-09-30T20:24:49.154Z,11.70
2018-09-30T20:27:20.790Z,11.70
2018-09-30T20:29:52.568Z,11.70
2018-09-30T20:32:24.269Z,11.60
2018-09-30T20:34:55.580Z,11.50
2018-09-30T20:37:27.305Z,11.60
2018-09-30T20:39:58.705Z,11.50
2018-09-30T20:42:30.197Z,11.50
2018-09-30T20:45:01.677Z,11.50
2018-09-30T20:47:33.166Z,11.40
2018-09-30T20:50:04.531Z,11.30
2018-09-30T20:52:35.997Z,11.30
2018-09-30T20:55:07.375Z,11.30
2018-09-30T20:57:38.968Z,11.30
2018-09-30T21:00:10.434Z,11.20
2018-09-30T21:02:41.654Z,11.30
2018-09-30T21:06:31.113Z,11.20
2018-09-30T21:09:02.493Z,11.20
2018-09-30T21:11:33.976Z,11.00
2018-09-30T21:14:05.472Z,10.80
2018-09-30T21:16:37.105Z,10.80
2018-09-30T21:19:08.690Z,10.80
2018-09-30T21:21:40.171Z,10.70
2018-09-30T21:24:11.472Z,10.70
2018-09-30T21:26:42.745Z,10.60
2018-09-30T21:29:14.144Z,10.60
2018-09-30T21:31:45.548Z,10.70
2018-09-30T21:34:17.205Z,10.60
2018-09-30T21:36:48.628Z,10.50
2018-09-30T21:39:19.973Z,10.50
2018-09-30T21:41:51.724Z,10.50
2018-09-30T21:44:23.156Z,10.50
2018-09-30T21:46:54.756Z,10.40
2018-09-30T21:49:26.941Z,10.30
2018-09-30T21:51:58.284Z,10.20
2018-09-30T21:54:29.533Z,10.20
2018-09-30T21:57:00.878Z,10.20
2018-09-30T21:59:32.314Z,10.20
2018-09-30T22:02:03.530Z,10.20
2018-09-30T22:04:34.712Z,10.20
2018-09-30T22:07:05.968Z,10.20
2018-09-30T22:09:37.164Z,10.20
2018-09-30T22:12:08.555Z,10.30
2018-09-30T22:14:39.801Z,10.20
2018-09-30T22:17:11.256Z,10.20
2018-09-30T22:19:42.577Z,10.10
2018-09-30T22:22:13.720Z,9.90
2018-09-30T22:24:44.943Z,9.90
2018-09-30T22:27:16.414Z,9.90
2018-09-30T22:29:47.660Z,9.90
2018-09-30T22:32:18.889Z,9.90
2018-09-30T22:34:50.176Z,9.90
2018-09-30T22:37:21.488Z,9.80
2018-09-30T22:39:52.668Z,9.80
2018-09-30T22:42:24.208Z,9.80
2018-09-30T22:44:55.345Z,9.70
2018-09-30T22:47:26.409Z,9.80
2018-09-30T22:49:57.884Z,9.80
2018-09-30T22:52:29.008Z,9.70
2018-09-30T22:55:00.685Z,9.60
2018-09-30T22:57:31.682Z,9.40
2018-09-30T23:00:05.704Z,9.40
2018-09-30T23:02:37.234Z,9.30
2018-09-30T23:05:09.856Z,9.30
2018-09-30T23:07:41.259Z,9.20
2018-09-30T23:10:13.381Z,9.20
2018-09-30T23:12:44.424Z,9.30
2018-09-30T23:15:15.848Z,9.20
2018-09-30T23:17:47.243Z,9.20
2018-09-30T23:20:19.276Z,9.30
2018-09-30T23:22:50.470Z,9.20
2018-09-30T23:25:21.729Z,9.20
2018-09-30T23:27:53.215Z,9.10
2018-09-30T23:30:24.339Z,9.00
2018-09-30T23:32:55.656Z,9.00
2018-09-30T23:35:27.014Z,9.10
2018-09-30T23:37:58.652Z,9.00
2018-09-30T23:40:29.945Z,9.00
2018-09-30T23:43:01.246Z,8.90
2018-09-30T23:45:32.612Z,9.00
2018-09-30T23:48:04.065Z,9.10
2018-09-30T23:50:35.224Z,9.20
2018-09-30T23:53:06.422Z,9.20
2018-09-30T23:55:37.764Z,9.20
2018-09-30T23:58:14.452Z,9.10
